地図

経路データ

SID SEASON NUMBER BASIN SUBBASIN NAME ISO_TIME NATURE LAT LON WMO_WIND WMO_PRES WMO_AGENCY TRACK_TYPE DIST2LAND LANDFALL IFLAG USA_AGENCY USA_ATCF_ID USA_LAT USA_LON USA_RECORD USA_STATUS USA_WIND USA_PRES USA_SSHS USA_R34_NE USA_R34_SE USA_R34_SW USA_R34_NW USA_R50_NE USA_R50_SE USA_R50_SW USA_R50_NW USA_R64_NE USA_R64_SE USA_R64_SW USA_R64_NW USA_POCI USA_ROCI USA_RMW USA_EYE TOKYO_LAT TOKYO_LON TOKYO_GRADE TOKYO_WIND TOKYO_PRES TOKYO_R50_DIR TOKYO_R50_LONG TOKYO_R50_SHORT TOKYO_R30_DIR TOKYO_R30_LONG TOKYO_R30_SHORT TOKYO_LAND CMA_LAT CMA_LON CMA_CAT CMA_WIND CMA_PRES HKO_LAT HKO_LON HKO_CAT HKO_WIND HKO_PRES NEWDELHI_LAT NEWDELHI_LON NEWDELHI_GRADE NEWDELHI_WIND NEWDELHI_PRES NEWDELHI_CI NEWDELHI_DP NEWDELHI_POCI REUNION_LAT REUNION_LON REUNION_TYPE REUNION_WIND REUNION_PRES REUNION_TNUM REUNION_CI REUNION_RMW REUNION_R34_NE REUNION_R34_SE REUNION_R34_SW REUNION_R34_NW REUNION_R50_NE REUNION_R50_SE REUNION_R50_SW REUNION_R50_NW REUNION_R64_NE REUNION_R64_SE REUNION_R64_SW REUNION_R64_NW BOM_LAT BOM_LON BOM_TYPE BOM_WIND BOM_PRES BOM_TNUM BOM_CI BOM_RMW BOM_R34_NE BOM_R34_SE BOM_R34_SW BOM_R34_NW BOM_R50_NE BOM_R50_SE BOM_R50_SW BOM_R50_NW BOM_R64_NE BOM_R64_SE BOM_R64_SW BOM_R64_NW BOM_ROCI BOM_POCI BOM_EYE BOM_POS_METHOD BOM_PRES_METHOD NADI_LAT NADI_LON NADI_CAT NADI_WIND NADI_PRES WELLINGTON_LAT WELLINGTON_LON WELLINGTON_WIND WELLINGTON_PRES DS824_LAT DS824_LON DS824_STAGE DS824_WIND DS824_PRES TD9636_LAT TD9636_LON TD9636_STAGE TD9636_WIND TD9636_PRES TD9635_LAT TD9635_LON TD9635_WIND TD9635_PRES TD9635_ROCI NEUMANN_LAT NEUMANN_LON NEUMANN_CLASS NEUMANN_WIND NEUMANN_PRES MLC_LAT MLC_LON MLC_CLASS MLC_WIND MLC_PRES USA_GUST BOM_GUST BOM_GUST_PER REUNION_GUST REUNION_GUST_PER USA_SEAHGT USA_SEARAD_NE USA_SEARAD_SE USA_SEARAD_SW USA_SEARAD_NW STORM_SPEED STORM_DIR
1985199N18248 1985 55 EP MM HILDA 1985-07-18 00:00:00 TS 17.7000 -112.000 25 hurdat_epa main 617 583 O_________O___ hurdat_epa EP081985 17.7000 -112.000 TD 25 -1 17.7000 -112.000 1 25 9 328
1985199N18248 1985 55 EP MM HILDA 1985-07-18 03:00:00 TS 18.0895 -112.256 main 587 556 P_________P___ EP081985 18.0801 -112.270 TD 25 -1 18.1176 -112.216 1 25 9 331
1985199N18248 1985 55 EP MM HILDA 1985-07-18 06:00:00 TS 18.5120 -112.482 25 hurdat_epa main 556 512 O_________P___ hurdat_epa EP081985 18.5000 -112.500 TD 25 -1 18.5480 -112.427 1 25 10 337
1985199N18248 1985 55 EP MM HILDA 1985-07-18 09:00:00 TS 18.9898 -112.655 main 518 478 P_________P___ EP081985 18.9849 -112.665 TD 25 -1 19.0044 -112.624 1 25 10 343
1985199N18248 1985 55 EP MM HILDA 1985-07-18 12:00:00 TS 19.5000 -112.800 25 hurdat_epa main 478 441 O_________O___ hurdat_epa EP081985 19.5000 -112.800 TD 25 -1 19.5000 -112.800 1 25 11 345
1985199N18248 1985 55 EP MM HILDA 1985-07-18 15:00:00 TS 20.0095 -112.946 main 441 417 P_________P___ EP081985 20.0000 -112.943 TD 27 -1 20.0380 -112.954 1 27 11 345
1985199N18248 1985 55 EP MM HILDA 1985-07-18 18:00:00 TS 20.5205 -113.101 30 hurdat_epa main 417 392 O_________P___ hurdat_epa EP081985 20.5000 -113.100 TD 30 -1 20.5819 -113.105 1 30 11 343
1985199N18248 1985 55 EP MM HILDA 1985-07-18 21:00:00 TS 21.0493 -113.278 main 401 377 P_________P___ EP081985 21.0374 -113.278 TD 32 -1 21.0848 -113.279 1 32 11 339
1985199N18248 1985 55 EP MM HILDA 1985-07-19 00:00:00 TS 21.5000 -113.500 35 hurdat_epa main 377 358 O_________O___ hurdat_epa EP081985 21.5000 -113.500 TS 35 0 21.5000 -113.500 2 35 9 329
1985199N18248 1985 55 EP MM HILDA 1985-07-19 03:00:00 TS 21.8067 -113.775 main 364 355 P_________P___ EP081985 21.8099 -113.770 TS 35 0 21.7969 -113.792 2 35 8 311
1985199N18248 1985 55 EP MM HILDA 1985-07-19 06:00:00 TS 22.0000 -114.108 35 hurdat_epa main 364 360 O_________P___ hurdat_epa EP081985 22.0000 -114.100 TS 35 0 22.0000 -114.133 2 35 7 296
1985199N18248 1985 55 EP MM HILDA 1985-07-19 09:00:00 TS 22.1295 -114.491 main 379 378 P_________P___ EP081985 22.1300 -114.485 TS 35 0 22.1281 -114.507 2 35 8 285
1985199N18248 1985 55 EP MM HILDA 1985-07-19 12:00:00 TS 22.2000 -114.900 35 hurdat_epa main 399 399 O_________O___ hurdat_epa EP081985 22.2000 -114.900 TS 35 0 22.2000 -114.900 2 35 8 281
1985199N18248 1985 55 EP MM HILDA 1985-07-19 15:00:00 TS 22.2678 -115.293 main 421 421 P_________P___ EP081985 22.2724 -115.300 TS 35 0 22.2540 -115.274 2 35 7 277
1985199N18248 1985 55 EP MM HILDA 1985-07-19 18:00:00 TS 22.2899 -115.691 35 hurdat_epa main 452 452 O_________P___ hurdat_epa EP081985 22.3000 -115.700 TS 35 0 22.2595 -115.663 2 35 7 269
1985199N18248 1985 55 EP MM HILDA 1985-07-19 21:00:00 TS 22.2518 -116.093 main 485 485 P_________P___ EP081985 22.2574 -116.100 TS 35 0 22.2352 -116.071 2 35 8 263
1985199N18248 1985 55 EP MM HILDA 1985-07-20 00:00:00 TS 22.2000 -116.500 35 hurdat_epa main 525 525 O_________O___ hurdat_epa EP081985 22.2000 -116.500 TS 35 0 22.2000 -116.500 2 35 7 265
1985199N18248 1985 55 EP MM HILDA 1985-07-20 03:00:00 TS 22.1921 -116.896 main 560 560 P_________P___ EP081985 22.1997 -116.877 TS 32 -1 22.1692 -116.953 2 32 8 269
1985199N18248 1985 55 EP MM HILDA 1985-07-20 06:00:00 TS 22.1860 -117.331 30 hurdat_epa main 595 595 O_________P___ hurdat_epa EP081985 22.2000 -117.300 TD 30 -1 22.1438 -117.425 2 30 9 267
1985199N18248 1985 55 EP MM HILDA 1985-07-20 09:00:00 TS 22.1527 -117.842 main 640 640 P_________P___ EP081985 22.1631 -117.820 TD 27 -1 22.1215 -117.909 2 27 10 265
1985199N18248 1985 55 EP MM HILDA 1985-07-20 12:00:00 TS 22.1000 -118.400 25 hurdat_epa main 698 O_________O___ hurdat_epa EP081985 22.1000 -118.400 TD 25 -1 22.1000 -118.400 1 25 10 264

IBTrACS Databaseについて

本データベースは、米国NOAAが公開する1842年以降の世界の熱帯低気圧のベストトラックデータアーカイブInternational Best Track Archive for Climate Stewardship (IBTrACS)を、ウェブで閲覧しやすい形式に変換したものです。

最終更新日:2021-10-21